Aeroporto :
LOGIN :

Iscrizione | Disclaimer

   EN    FR    IT 

 










Sommario :    VFR   VFR Marginale   IFR   IFR Intensivo   IFR Molto Intensivo
Visibilità : 
Base nubi : 
>= 8 km
>= 3000ft
5 / 8 km
1000 / 3000 ft
1500m / 5 km
500 / 1000 ft
800 / 1500m
200 / 500 ft
< 800m
< 200 ft
Simboli :   Temporali  Nebbia  Neve Forte  Precipitazioni Forti  Vento > 20 kt
SIGMETs :   Varie  Temporali  Ghiacco  Turbolenza  Onda orograficha  Ceneri Vulcaniche






- Altitudine del aeroporto : 13 ft
- Codice IATA : LYX


EGMD - Lydd

ULTIMO METAR :
  • 210920Z 16018KT 9999 BKN029 15/14 Q0992

METARs OBSOLETI :
  • 210850Z 15017KT 9999 -RA SCT007 BKN035 14/14 Q0993
  • 210820Z 16018KT 5000 -RA BKN004 15/15 Q0993
  • 210750Z 17018KT 4000 -RA BKN006 BKN011 15/15 Q0994
  • 210720Z 16018KT 9000 -RA SCT006 BKN008 15/14 Q0994
  • 210650Z AUTO 16020KT 6000 -RA BKN006/// BKN010/// OVC032/// 15/14 Q0994

TAF AMD TAF EGMD
Valido dal 21 a 09 ore il 21 a 18 ore UTC


210909Z 2109/2118 17020KT 9999 SCT007
BECMG 2109/2112 22022G32KT
TEMPO 2109/2118 7000 -RA BKN007
PROB30
TEMPO 2109/2118 4000 RADZ
PROB30
TEMPO 2110/2114 21028G45KT
ATIS : +44 1797 322 422



MetMap, La meteo Aeronautica in un colpo d'occhio ! - Copyright ORBIFLY Dicembre 2007 - Disclaimer

ORBIFLY MET'MAP TEAM :

Programmazione e sviluppo : Alexandra Zaïnal
Concezione : Baudouin d'Aumeries
Aiuto per la programmazione : Marc-Olivier Méhu
Supporto tecnico e logistico : Manuel Goepfert
Aiuto per la traduzione : Arnaldo La Scala

Contatto : metmap@orbifly.com




FONTI E CREDITI :

   NOAA